sensor_id;sensor_type;location;lat;lon;timestamp;pressure;altitude;pressure_sealevel;temperature;humidity
55916;BME280;41826;53.246;-6.670;2022-12-18T00:01:59;99242.00;;;2.73;100.00
55916;BME280;41826;53.246;-6.670;2022-12-18T00:04:26;99240.09;;;2.75;100.00
55916;BME280;41826;53.246;-6.670;2022-12-18T00:06:52;99234.84;;;2.86;100.00
55916;BME280;41826;53.246;-6.670;2022-12-18T00:09:18;99226.66;;;2.91;100.00
55916;BME280;41826;53.246;-6.670;2022-12-18T00:11:44;99213.31;;;2.95;100.00
55916;BME280;41826;53.246;-6.670;2022-12-18T00:14:12;99212.66;;;3.03;100.00
55916;BME280;41826;53.246;-6.670;2022-12-18T00:16:39;99206.38;;;3.06;100.00
55916;BME280;41826;53.246;-6.670;2022-12-18T00:19:05;99200.50;;;3.03;100.00
55916;BME280;41826;53.246;-6.670;2022-12-18T00:21:32;99192.06;;;3.11;100.00
55916;BME280;41826;53.246;-6.670;2022-12-18T00:23:59;99201.88;;;3.08;100.00
55916;BME280;41826;53.246;-6.670;2022-12-18T00:26:32;99196.31;;;3.12;100.00
55916;BME280;41826;53.246;-6.670;2022-12-18T00:29:01;99196.16;;;3.14;100.00
55916;BME280;41826;53.246;-6.670;2022-12-18T00:31:27;99184.28;;;3.11;100.00
55916;BME280;41826;53.246;-6.670;2022-12-18T00:33:56;99175.59;;;3.22;100.00
55916;BME280;41826;53.246;-6.670;2022-12-18T00:36:34;99164.94;;;3.25;100.00
55916;BME280;41826;53.246;-6.670;2022-12-18T00:39:02;99164.56;;;3.30;100.00
55916;BME280;41826;53.246;-6.670;2022-12-18T00:41:28;99145.72;;;3.37;100.00
55916;BME280;41826;53.246;-6.670;2022-12-18T00:44:13;99136.97;;;3.48;100.00
55916;BME280;41826;53.246;-6.670;2022-12-18T00:46:41;99132.34;;;3.42;100.00
55916;BME280;41826;53.246;-6.670;2022-12-18T00:49:07;99129.31;;;3.46;100.00
55916;BME280;41826;53.246;-6.670;2022-12-18T00:51:33;99126.31;;;3.71;100.00
55916;BME280;41826;53.246;-6.670;2022-12-18T00:54:00;99129.31;;;3.66;100.00
55916;BME280;41826;53.246;-6.670;2022-12-18T00:56:25;99130.69;;;3.70;100.00
55916;BME280;41826;53.246;-6.670;2022-12-18T00:58:51;99136.81;;;3.69;100.00
55916;BME280;41826;53.246;-6.670;2022-12-18T01:01:17;99123.56;;;3.72;100.00
55916;BME280;41826;53.246;-6.670;2022-12-18T01:03:42;99132.88;;;3.65;100.00
55916;BME280;41826;53.246;-6.670;2022-12-18T01:06:11;99128.50;;;3.65;100.00
55916;BME280;41826;53.246;-6.670;2022-12-18T01:08:38;99126.44;;;3.69;100.00
55916;BME280;41826;53.246;-6.670;2022-12-18T01:11:09;99115.66;;;3.64;100.00
55916;BME280;41826;53.246;-6.670;2022-12-18T01:13:34;99131.50;;;3.71;100.00
55916;BME280;41826;53.246;-6.670;2022-12-18T01:16:00;99124.81;;;3.68;100.00
55916;BME280;41826;53.246;-6.670;2022-12-18T01:18:25;99138.31;;;3.72;100.00
55916;BME280;41826;53.246;-6.670;2022-12-18T01:20:52;99129.44;;;3.64;100.00
55916;BME280;41826;53.246;-6.670;2022-12-18T01:23:19;99114.44;;;3.58;100.00
55916;BME280;41826;53.246;-6.670;2022-12-18T01:25:44;99128.38;;;3.57;100.00
55916;BME280;41826;53.246;-6.670;2022-12-18T01:28:10;99118.41;;;3.53;100.00
55916;BME280;41826;53.246;-6.670;2022-12-18T01:30:36;99123.19;;;3.47;100.00
55916;BME280;41826;53.246;-6.670;2022-12-18T01:33:04;99133.16;;;3.42;100.00
55916;BME280;41826;53.246;-6.670;2022-12-18T01:35:31;99121.53;;;3.46;100.00
55916;BME280;41826;53.246;-6.670;2022-12-18T01:37:57;99119.50;;;3.50;100.00
55916;BME280;41826;53.246;-6.670;2022-12-18T01:40:23;99108.97;;;3.52;100.00
55916;BME280;41826;53.246;-6.670;2022-12-18T01:42:52;99111.56;;;3.52;100.00
55916;BME280;41826;53.246;-6.670;2022-12-18T01:47:48;99084.50;;;3.74;100.00
55916;BME280;41826;53.246;-6.670;2022-12-18T01:52:51;99069.09;;;3.62;100.00
55916;BME280;41826;53.246;-6.670;2022-12-18T01:55:19;99065.28;;;3.57;100.00
55916;BME280;41826;53.246;-6.670;2022-12-18T01:57:47;99063.78;;;3.54;100.00
55916;BME280;41826;53.246;-6.670;2022-12-18T02:00:19;99067.63;;;3.60;100.00
55916;BME280;41826;53.246;-6.670;2022-12-18T02:02:47;99064.56;;;3.64;100.00
55916;BME280;41826;53.246;-6.670;2022-12-18T02:08:07;99050.94;;;3.62;100.00
55916;BME280;41826;53.246;-6.670;2022-12-18T02:10:46;99046.97;;;3.58;100.00
55916;BME280;41826;53.246;-6.670;2022-12-18T02:13:20;99041.66;;;3.60;100.00
55916;BME280;41826;53.246;-6.670;2022-12-18T02:16:01;99049.84;;;3.65;100.00
55916;BME280;41826;53.246;-6.670;2022-12-18T02:18:36;99042.47;;;3.70;100.00
55916;BME280;41826;53.246;-6.670;2022-12-18T02:26:34;98994.72;;;3.90;100.00
55916;BME280;41826;53.246;-6.670;2022-12-18T02:29:08;98974.75;;;3.91;100.00
55916;BME280;41826;53.246;-6.670;2022-12-18T02:31:39;98957.97;;;3.95;100.00
55916;BME280;41826;53.246;-6.670;2022-12-18T02:34:09;98935.81;;;3.91;100.00
55916;BME280;41826;53.246;-6.670;2022-12-18T02:36:38;98923.53;;;3.93;100.00
55916;BME280;41826;53.246;-6.670;2022-12-18T02:39:08;98887.69;;;3.97;100.00
55916;BME280;41826;53.246;-6.670;2022-12-18T02:41:35;98874.03;;;3.95;100.00
55916;BME280;41826;53.246;-6.670;2022-12-18T02:44:07;98858.38;;;3.86;100.00
55916;BME280;41826;53.246;-6.670;2022-12-18T02:46:37;98847.31;;;3.84;100.00
55916;BME280;41826;53.246;-6.670;2022-12-18T02:58:20;98810.25;;;3.74;100.00
55916;BME280;41826;53.246;-6.670;2022-12-18T03:03:29;98771.47;;;3.73;100.00
55916;BME280;41826;53.246;-6.670;2022-12-18T03:06:08;98763.53;;;3.74;100.00
55916;BME280;41826;53.246;-6.670;2022-12-18T03:08:44;98751.09;;;3.78;100.00
55916;BME280;41826;53.246;-6.670;2022-12-18T03:11:14;98739.28;;;3.83;100.00
55916;BME280;41826;53.246;-6.670;2022-12-18T03:13:47;98713.19;;;3.85;100.00
55916;BME280;41826;53.246;-6.670;2022-12-18T03:16:23;98693.75;;;3.89;100.00
55916;BME280;41826;53.246;-6.670;2022-12-18T03:18:57;98667.97;;;3.87;100.00
55916;BME280;41826;53.246;-6.670;2022-12-18T03:21:37;98656.97;;;3.94;100.00
55916;BME280;41826;53.246;-6.670;2022-12-18T03:24:07;98649.50;;;3.90;100.00
55916;BME280;41826;53.246;-6.670;2022-12-18T03:26:40;98640.72;;;3.91;100.00
55916;BME280;41826;53.246;-6.670;2022-12-18T03:29:10;98646.53;;;3.85;100.00
55916;BME280;41826;53.246;-6.670;2022-12-18T03:31:40;98644.78;;;3.94;100.00
55916;BME280;41826;53.246;-6.670;2022-12-18T03:34:12;98650.97;;;3.93;100.00
55916;BME280;41826;53.246;-6.670;2022-12-18T03:36:39;98644.75;;;3.86;100.00
55916;BME280;41826;53.246;-6.670;2022-12-18T03:39:06;98649.69;;;3.97;100.00
55916;BME280;41826;53.246;-6.670;2022-12-18T03:41:38;98646.88;;;3.90;100.00
55916;BME280;41826;53.246;-6.670;2022-12-18T03:44:31;98633.16;;;3.98;100.00
55916;BME280;41826;53.246;-6.670;2022-12-18T03:47:25;98627.44;;;3.95;100.00
55916;BME280;41826;53.246;-6.670;2022-12-18T03:52:55;98597.34;;;4.10;100.00
55916;BME280;41826;53.246;-6.670;2022-12-18T03:55:22;98601.25;;;4.06;100.00
55916;BME280;41826;53.246;-6.670;2022-12-18T03:57:51;98596.72;;;4.08;100.00
55916;BME280;41826;53.246;-6.670;2022-12-18T04:00:18;98589.06;;;4.06;100.00
55916;BME280;41826;53.246;-6.670;2022-12-18T04:02:49;98586.25;;;4.00;100.00
55916;BME280;41826;53.246;-6.670;2022-12-18T04:05:17;98585.97;;;4.03;100.00
55916;BME280;41826;53.246;-6.670;2022-12-18T04:07:47;98582.09;;;4.07;100.00
55916;BME280;41826;53.246;-6.670;2022-12-18T04:10:14;98591.97;;;4.03;100.00
55916;BME280;41826;53.246;-6.670;2022-12-18T04:12:40;98587.59;;;4.04;100.00
55916;BME280;41826;53.246;-6.670;2022-12-18T04:15:06;98576.72;;;4.00;100.00
55916;BME280;41826;53.246;-6.670;2022-12-18T04:17:32;98578.53;;;4.08;100.00
55916;BME280;41826;53.246;-6.670;2022-12-18T04:19:58;98563.56;;;4.02;100.00
55916;BME280;41826;53.246;-6.670;2022-12-18T04:22:23;98557.09;;;4.06;100.00
55916;BME280;41826;53.246;-6.670;2022-12-18T04:24:48;98558.22;;;4.03;100.00
55916;BME280;41826;53.246;-6.670;2022-12-18T04:27:14;98552.38;;;4.01;100.00
55916;BME280;41826;53.246;-6.670;2022-12-18T04:29:39;98551.44;;;4.10;100.00
55916;BME280;41826;53.246;-6.670;2022-12-18T04:32:05;98545.16;;;4.21;100.00
55916;BME280;41826;53.246;-6.670;2022-12-18T04:34:30;98534.31;;;4.26;100.00
55916;BME280;41826;53.246;-6.670;2022-12-18T04:36:56;98522.00;;;4.36;100.00
55916;BME280;41826;53.246;-6.670;2022-12-18T04:39:21;98513.75;;;4.41;100.00
55916;BME280;41826;53.246;-6.670;2022-12-18T04:41:47;98506.09;;;4.39;100.00
55916;BME280;41826;53.246;-6.670;2022-12-18T04:44:14;98488.75;;;4.48;100.00
55916;BME280;41826;53.246;-6.670;2022-12-18T04:46:40;98484.06;;;4.51;100.00
55916;BME280;41826;53.246;-6.670;2022-12-18T04:49:06;98462.75;;;4.48;100.00
55916;BME280;41826;53.246;-6.670;2022-12-18T04:51:31;98450.28;;;4.51;100.00
55916;BME280;41826;53.246;-6.670;2022-12-18T04:53:56;98437.16;;;4.61;100.00
55916;BME280;41826;53.246;-6.670;2022-12-18T04:56:23;98427.69;;;4.68;100.00
55916;BME280;41826;53.246;-6.670;2022-12-18T04:58:49;98422.69;;;4.75;100.00
55916;BME280;41826;53.246;-6.670;2022-12-18T05:01:15;98397.19;;;4.78;100.00
55916;BME280;41826;53.246;-6.670;2022-12-18T05:03:41;98388.09;;;4.74;100.00
55916;BME280;41826;53.246;-6.670;2022-12-18T05:06:07;98377.84;;;4.73;100.00
55916;BME280;41826;53.246;-6.670;2022-12-18T05:08:33;98365.50;;;4.67;100.00
55916;BME280;41826;53.246;-6.670;2022-12-18T05:11:03;98351.38;;;4.69;100.00
55916;BME280;41826;53.246;-6.670;2022-12-18T05:13:30;98345.84;;;4.72;100.00
55916;BME280;41826;53.246;-6.670;2022-12-18T05:15:55;98358.03;;;4.72;100.00
55916;BME280;41826;53.246;-6.670;2022-12-18T05:18:22;98364.38;;;4.61;100.00
55916;BME280;41826;53.246;-6.670;2022-12-18T05:20:53;98358.84;;;4.64;100.00
55916;BME280;41826;53.246;-6.670;2022-12-18T05:23:21;98369.91;;;4.66;100.00
55916;BME280;41826;53.246;-6.670;2022-12-18T05:25:56;98367.13;;;4.60;100.00
55916;BME280;41826;53.246;-6.670;2022-12-18T05:28:24;98372.50;;;4.66;100.00
55916;BME280;41826;53.246;-6.670;2022-12-18T05:30:50;98366.66;;;4.64;100.00
55916;BME280;41826;53.246;-6.670;2022-12-18T05:33:17;98358.88;;;4.56;100.00
55916;BME280;41826;53.246;-6.670;2022-12-18T05:35:43;98366.66;;;4.56;100.00
55916;BME280;41826;53.246;-6.670;2022-12-18T05:38:09;98360.97;;;4.52;100.00
55916;BME280;41826;53.246;-6.670;2022-12-18T05:40:35;98364.22;;;4.46;100.00
55916;BME280;41826;53.246;-6.670;2022-12-18T05:43:01;98362.44;;;4.47;100.00
55916;BME280;41826;53.246;-6.670;2022-12-18T05:45:27;98380.28;;;4.42;100.00
55916;BME280;41826;53.246;-6.670;2022-12-18T05:47:52;98381.56;;;4.38;100.00
55916;BME280;41826;53.246;-6.670;2022-12-18T05:50:19;98380.28;;;4.33;100.00
55916;BME280;41826;53.246;-6.670;2022-12-18T05:52:44;98372.50;;;4.33;100.00
55916;BME280;41826;53.246;-6.670;2022-12-18T05:55:10;98371.03;;;4.31;100.00
55916;BME280;41826;53.246;-6.670;2022-12-18T05:57:35;98369.38;;;4.30;100.00
55916;BME280;41826;53.246;-6.670;2022-12-18T06:00:03;98363.53;;;4.28;100.00
55916;BME280;41826;53.246;-6.670;2022-12-18T06:02:28;98352.66;;;4.32;100.00
55916;BME280;41826;53.246;-6.670;2022-12-18T06:04:54;98345.53;;;4.26;100.00
55916;BME280;41826;53.246;-6.670;2022-12-18T06:07:19;98346.19;;;4.28;100.00
55916;BME280;41826;53.246;-6.670;2022-12-18T06:09:44;98340.66;;;4.31;100.00
55916;BME280;41826;53.246;-6.670;2022-12-18T06:12:10;98345.53;;;4.26;100.00
55916;BME280;41826;53.246;-6.670;2022-12-18T06:14:35;98347.47;;;4.32;100.00
55916;BME280;41826;53.246;-6.670;2022-12-18T06:17:02;98340.81;;;4.30;100.00
55916;BME280;41826;53.246;-6.670;2022-12-18T06:19:28;98351.53;;;4.35;100.00
55916;BME280;41826;53.246;-6.670;2022-12-18T06:21:54;98331.91;;;4.41;100.00
55916;BME280;41826;53.246;-6.670;2022-12-18T06:24:20;98322.16;;;4.43;100.00
55916;BME280;41826;53.246;-6.670;2022-12-18T06:26:45;98321.34;;;4.42;100.00
55916;BME280;41826;53.246;-6.670;2022-12-18T06:29:13;98304.16;;;4.41;100.00
55916;BME280;41826;53.246;-6.670;2022-12-18T06:31:40;98289.38;;;4.42;100.00
55916;BME280;41826;53.246;-6.670;2022-12-18T06:34:05;98291.50;;;4.38;100.00
55916;BME280;41826;53.246;-6.670;2022-12-18T06:36:30;98293.91;;;4.40;100.00
55916;BME280;41826;53.246;-6.670;2022-12-18T06:38:56;98286.78;;;4.33;100.00
55916;BME280;41826;53.246;-6.670;2022-12-18T06:41:22;98285.00;;;4.34;100.00
55916;BME280;41826;53.246;-6.670;2022-12-18T06:43:48;98266.81;;;4.34;100.00
55916;BME280;41826;53.246;-6.670;2022-12-18T06:46:13;98267.94;;;4.31;100.00
55916;BME280;41826;53.246;-6.670;2022-12-18T06:48:39;98246.19;;;4.32;100.00
55916;BME280;41826;53.246;-6.670;2022-12-18T06:51:04;98241.19;;;4.31;100.00
55916;BME280;41826;53.246;-6.670;2022-12-18T06:53:31;98229.16;;;4.22;100.00
55916;BME280;41826;53.246;-6.670;2022-12-18T06:56:05;98221.38;;;4.22;100.00
55916;BME280;41826;53.246;-6.670;2022-12-18T06:58:31;98212.78;;;4.21;100.00
55916;BME280;41826;53.246;-6.670;2022-12-18T07:01:01;98219.75;;;4.21;100.00
55916;BME280;41826;53.246;-6.670;2022-12-18T07:03:27;98195.88;;;4.17;100.00
55916;BME280;41826;53.246;-6.670;2022-12-18T07:05:52;98187.75;;;4.20;100.00
55916;BME280;41826;53.246;-6.670;2022-12-18T07:08:17;98186.81;;;4.21;100.00
55916;BME280;41826;53.246;-6.670;2022-12-18T07:10:44;98193.47;;;4.24;100.00
55916;BME280;41826;53.246;-6.670;2022-12-18T07:13:10;98177.91;;;4.16;100.00
55916;BME280;41826;53.246;-6.670;2022-12-18T07:15:35;98171.53;;;4.26;100.00
55916;BME280;41826;53.246;-6.670;2022-12-18T07:18:02;98170.75;;;4.26;100.00
55916;BME280;41826;53.246;-6.670;2022-12-18T07:20:28;98176.75;;;4.26;100.00
55916;BME280;41826;53.246;-6.670;2022-12-18T07:22:54;98172.66;;;4.32;100.00
55916;BME280;41826;53.246;-6.670;2022-12-18T07:25:19;98179.34;;;4.26;100.00
55916;BME280;41826;53.246;-6.670;2022-12-18T07:27:46;98173.81;;;4.21;100.00
55916;BME280;41826;53.246;-6.670;2022-12-18T07:30:12;98166.69;;;4.23;100.00
55916;BME280;41826;53.246;-6.670;2022-12-18T07:32:37;98160.50;;;4.24;100.00
55916;BME280;41826;53.246;-6.670;2022-12-18T07:35:03;98144.44;;;4.29;100.00
55916;BME280;41826;53.246;-6.670;2022-12-18T07:37:29;98138.09;;;4.31;100.00
55916;BME280;41826;53.246;-6.670;2022-12-18T07:39:55;98124.97;;;4.33;100.00
55916;BME280;41826;53.246;-6.670;2022-12-18T07:42:20;98109.19;;;4.34;100.00
55916;BME280;41826;53.246;-6.670;2022-12-18T07:44:59;98099.09;;;4.40;100.00
55916;BME280;41826;53.246;-6.670;2022-12-18T07:47:26;98086.13;;;4.40;100.00
55916;BME280;41826;53.246;-6.670;2022-12-18T07:49:52;98066.13;;;4.40;100.00
55916;BME280;41826;53.246;-6.670;2022-12-18T07:52:18;98065.34;;;4.40;100.00
55916;BME280;41826;53.246;-6.670;2022-12-18T07:54:43;98054.50;;;4.36;100.00
55916;BME280;41826;53.246;-6.670;2022-12-18T07:57:09;98050.75;;;4.39;100.00
55916;BME280;41826;53.246;-6.670;2022-12-18T07:59:34;98045.22;;;4.42;100.00
55916;BME280;41826;53.246;-6.670;2022-12-18T08:02:00;98035.13;;;4.47;100.00
55916;BME280;41826;53.246;-6.670;2022-12-18T08:04:26;98031.72;;;4.46;100.00
55916;BME280;41826;53.246;-6.670;2022-12-18T08:06:52;98019.38;;;4.48;100.00
55916;BME280;41826;53.246;-6.670;2022-12-18T08:09:18;98002.44;;;4.52;100.00
55916;BME280;41826;53.246;-6.670;2022-12-18T08:11:45;97999.03;;;4.52;100.00
55916;BME280;41826;53.246;-6.670;2022-12-18T08:14:11;98016.59;;;4.50;100.00
55916;BME280;41826;53.246;-6.670;2022-12-18T08:16:37;98000.69;;;4.45;100.00
55916;BME280;41826;53.246;-6.670;2022-12-18T08:19:04;97994.53;;;4.46;100.00
55916;BME280;41826;53.246;-6.670;2022-12-18T08:21:30;97994.34;;;4.47;100.00
55916;BME280;41826;53.246;-6.670;2022-12-18T08:23:59;97970.81;;;4.49;100.00
55916;BME280;41826;53.246;-6.670;2022-12-18T08:26:26;97979.28;;;4.43;100.00
55916;BME280;41826;53.246;-6.670;2022-12-18T08:28:57;97987.06;;;4.43;100.00
55916;BME280;41826;53.246;-6.670;2022-12-18T08:31:24;97989.06;;;4.41;100.00
55916;BME280;41826;53.246;-6.670;2022-12-18T08:33:51;97979.28;;;4.43;100.00
55916;BME280;41826;53.246;-6.670;2022-12-18T08:36:18;97977.69;;;4.42;100.00
55916;BME280;41826;53.246;-6.670;2022-12-18T08:38:44;97978.69;;;4.32;100.00
55916;BME280;41826;53.246;-6.670;2022-12-18T08:41:11;97981.78;;;4.36;100.00
55916;BME280;41826;53.246;-6.670;2022-12-18T08:43:37;97990.00;;;4.40;100.00
55916;BME280;41826;53.246;-6.670;2022-12-18T08:46:23;97984.03;;;4.39;100.00
55916;BME280;41826;53.246;-6.670;2022-12-18T08:48:51;97998.63;;;4.40;100.00
55916;BME280;41826;53.246;-6.670;2022-12-18T08:51:17;97999.59;;;4.39;100.00
55916;BME280;41826;53.246;-6.670;2022-12-18T08:53:43;98000.75;;;4.37;100.00
55916;BME280;41826;53.246;-6.670;2022-12-18T08:56:11;98009.00;;;4.40;100.00
55916;BME280;41826;53.246;-6.670;2022-12-18T08:58:38;98005.59;;;4.40;100.00
55916;BME280;41826;53.246;-6.670;2022-12-18T09:01:05;98011.28;;;4.43;100.00
55916;BME280;41826;53.246;-6.670;2022-12-18T09:03:32;98003.78;;;4.48;100.00
55916;BME280;41826;53.246;-6.670;2022-12-18T09:05:59;98013.34;;;4.48;100.00
55916;BME280;41826;53.246;-6.670;2022-12-18T09:08:25;98010.59;;;4.49;100.00
55916;BME280;41826;53.246;-6.670;2022-12-18T09:10:51;97995.00;;;4.49;100.00
55916;BME280;41826;53.246;-6.670;2022-12-18T09:13:18;98003.78;;;4.48;100.00
55916;BME280;41826;53.246;-6.670;2022-12-18T09:15:48;97995.47;;;4.53;100.00
55916;BME280;41826;53.246;-6.670;2022-12-18T09:18:15;97987.16;;;4.57;100.00
55916;BME280;41826;53.246;-6.670;2022-12-18T09:20:41;97987.97;;;4.58;100.00
55916;BME280;41826;53.246;-6.670;2022-12-18T09:23:07;97979.84;;;4.61;100.00
55916;BME280;41826;53.246;-6.670;2022-12-18T09:25:33;97960.00;;;4.60;100.00
55916;BME280;41826;53.246;-6.670;2022-12-18T09:28:02;97964.25;;;4.61;100.00
55916;BME280;41826;53.246;-6.670;2022-12-18T09:30:28;97955.09;;;4.65;100.00
55916;BME280;41826;53.246;-6.670;2022-12-18T09:32:53;97957.34;;;4.68;100.00
55916;BME280;41826;53.246;-6.670;2022-12-18T09:35:18;97964.00;;;4.71;100.00
55916;BME280;41826;53.246;-6.670;2022-12-18T09:37:44;97953.88;;;4.76;100.00
55916;BME280;41826;53.246;-6.670;2022-12-18T09:40:24;97954.22;;;4.81;100.00
55916;BME280;41826;53.246;-6.670;2022-12-18T09:43:02;97955.38;;;4.93;100.00
55916;BME280;41826;53.246;-6.670;2022-12-18T09:45:38;97941.94;;;4.90;100.00
55916;BME280;41826;53.246;-6.670;2022-12-18T09:48:10;97932.47;;;4.97;100.00
55916;BME280;41826;53.246;-6.670;2022-12-18T09:50:41;97932.47;;;4.97;100.00
55916;BME280;41826;53.246;-6.670;2022-12-18T09:53:18;97934.88;;;4.98;100.00
55916;BME280;41826;53.246;-6.670;2022-12-18T09:55:46;97926.53;;;5.03;100.00
55916;BME280;41826;53.246;-6.670;2022-12-18T10:00:41;97911.34;;;5.15;100.00
55916;BME280;41826;53.246;-6.670;2022-12-18T10:03:14;97896.16;;;5.18;100.00
55916;BME280;41826;53.246;-6.670;2022-12-18T10:06:06;97879.13;;;5.16;100.00
55916;BME280;41826;53.246;-6.670;2022-12-18T10:08:48;97876.00;;;5.20;100.00
55916;BME280;41826;53.246;-6.670;2022-12-18T10:11:53;97871.06;;;5.26;100.00
55916;BME280;41826;53.246;-6.670;2022-12-18T10:14:40;97854.66;;;5.25;100.00
55916;BME280;41826;53.246;-6.670;2022-12-18T10:19:40;97839.16;;;5.32;100.00
55916;BME280;41826;53.246;-6.670;2022-12-18T10:25:25;97814.28;;;5.44;100.00
55916;BME280;41826;53.246;-6.670;2022-12-18T10:27:58;97796.78;;;5.53;100.00
55916;BME280;41826;53.246;-6.670;2022-12-18T10:30:27;97794.88;;;5.61;100.00
55916;BME280;41826;53.246;-6.670;2022-12-18T10:32:52;97779.13;;;5.70;100.00
55916;BME280;41826;53.246;-6.670;2022-12-18T10:35:26;97762.16;;;5.74;100.00
55916;BME280;41826;53.246;-6.670;2022-12-18T10:40:52;97755.25;;;5.81;100.00
55916;BME280;41826;53.246;-6.670;2022-12-18T10:43:31;97748.31;;;5.88;100.00
55916;BME280;41826;53.246;-6.670;2022-12-18T10:51:26;97753.66;;;6.01;100.00
55916;BME280;41826;53.246;-6.670;2022-12-18T10:54:01;97738.38;;;6.20;100.00
55916;BME280;41826;53.246;-6.670;2022-12-18T10:56:29;97736.00;;;6.25;100.00
55916;BME280;41826;53.246;-6.670;2022-12-18T10:59:09;97724.09;;;6.37;100.00
55916;BME280;41826;53.246;-6.670;2022-12-18T11:01:57;97727.00;;;6.56;100.00
55916;BME280;41826;53.246;-6.670;2022-12-18T11:04:25;97702.78;;;6.62;100.00
55916;BME280;41826;53.246;-6.670;2022-12-18T11:07:03;97697.41;;;6.70;100.00
55916;BME280;41826;53.246;-6.670;2022-12-18T11:09:33;97685.41;;;6.69;100.00
55916;BME280;41826;53.246;-6.670;2022-12-18T11:12:02;97682.19;;;6.67;100.00
55916;BME280;41826;53.246;-6.670;2022-12-18T11:14:57;97673.59;;;6.80;100.00
55916;BME280;41826;53.246;-6.670;2022-12-18T11:17:31;97664.72;;;6.67;100.00
55916;BME280;41826;53.246;-6.670;2022-12-18T11:20:22;97657.63;;;6.89;100.00
55916;BME280;41826;53.246;-6.670;2022-12-18T11:23:03;97645.94;;;6.85;100.00
55916;BME280;41826;53.246;-6.670;2022-12-18T11:25:30;97648.38;;;6.93;100.00
55916;BME280;41826;53.246;-6.670;2022-12-18T11:30:36;97628.13;;;6.89;100.00
55916;BME280;41826;53.246;-6.670;2022-12-18T11:33:21;97626.34;;;7.03;100.00
55916;BME280;41826;53.246;-6.670;2022-12-18T11:35:58;97616.56;;;7.18;100.00
55916;BME280;41826;53.246;-6.670;2022-12-18T11:38:41;97607.72;;;7.12;100.00
55916;BME280;41826;53.246;-6.670;2022-12-18T11:41:32;97602.72;;;7.31;100.00
55916;BME280;41826;53.246;-6.670;2022-12-18T11:44:31;97581.25;;;7.35;100.00
55916;BME280;41826;53.246;-6.670;2022-12-18T11:47:09;97573.44;;;7.22;100.00
55916;BME280;41826;53.246;-6.670;2022-12-18T11:49:41;97542.72;;;7.24;100.00
55916;BME280;41826;53.246;-6.670;2022-12-18T11:52:21;97537.50;;;7.37;100.00
55916;BME280;41826;53.246;-6.670;2022-12-18T11:54:52;97525.06;;;7.33;100.00
55916;BME280;41826;53.246;-6.670;2022-12-18T12:00:19;97521.63;;;7.59;100.00
55916;BME280;41826;53.246;-6.670;2022-12-18T12:19:32;97515.41;;;7.67;100.00
55916;BME280;41826;53.246;-6.670;2022-12-18T12:22:13;97497.69;;;7.89;100.00
55916;BME280;41826;53.246;-6.670;2022-12-18T12:39:30;97473.94;;;8.03;100.00
55916;BME280;41826;53.246;-6.670;2022-12-18T12:42:03;97461.78;;;8.22;100.00
55916;BME280;41826;53.246;-6.670;2022-12-18T12:44:51;97447.72;;;8.23;100.00
55916;BME280;41826;53.246;-6.670;2022-12-18T12:47:40;97454.38;;;8.19;100.00
55916;BME280;41826;53.246;-6.670;2022-12-18T12:50:13;97439.34;;;8.08;100.00
55916;BME280;41826;53.246;-6.670;2022-12-18T12:52:41;97454.97;;;8.21;100.00
55916;BME280;41826;53.246;-6.670;2022-12-18T12:55:21;97446.28;;;8.28;100.00
55916;BME280;41826;53.246;-6.670;2022-12-18T13:00:44;97434.78;;;8.42;100.00
55916;BME280;41826;53.246;-6.670;2022-12-18T13:06:04;97427.88;;;8.54;100.00
55916;BME280;41826;53.246;-6.670;2022-12-18T13:08:53;97431.03;;;8.63;100.00
55916;BME280;41826;53.246;-6.670;2022-12-18T13:11:40;97439.09;;;8.61;100.00
55916;BME280;41826;53.246;-6.670;2022-12-18T13:14:34;97420.09;;;8.73;100.00
55916;BME280;41826;53.246;-6.670;2022-12-18T13:22:40;97437.31;;;8.87;100.00
55916;BME280;41826;53.246;-6.670;2022-12-18T13:25:29;97419.59;;;8.89;100.00
55916;BME280;41826;53.246;-6.670;2022-12-18T13:27:57;97416.91;;;8.71;100.00
55916;BME280;41826;53.246;-6.670;2022-12-18T13:38:33;97405.13;;;9.11;100.00
55916;BME280;41826;53.246;-6.670;2022-12-18T13:43:47;97393.59;;;9.19;100.00
55916;BME280;41826;53.246;-6.670;2022-12-18T13:51:40;97387.97;;;9.34;100.00
55916;BME280;41826;53.246;-6.670;2022-12-18T13:56:47;97376.78;;;9.64;100.00
55916;BME280;41826;53.246;-6.670;2022-12-18T14:01:44;97365.22;;;9.53;100.00
55916;BME280;41826;53.246;-6.670;2022-12-18T14:04:18;97357.88;;;9.62;100.00
55916;BME280;41826;53.246;-6.670;2022-12-18T14:06:45;97363.63;;;9.70;100.00
55916;BME280;41826;53.246;-6.670;2022-12-18T14:09:16;97361.94;;;9.76;100.00
55916;BME280;41826;53.246;-6.670;2022-12-18T14:11:51;97360.06;;;9.65;100.00
55916;BME280;41826;53.246;-6.670;2022-12-18T14:14:18;97343.81;;;9.74;100.00
55916;BME280;41826;53.246;-6.670;2022-12-18T14:16:45;97361.16;;;9.75;100.00
55916;BME280;41826;53.246;-6.670;2022-12-18T14:19:16;97353.06;;;9.77;100.00
55916;BME280;41826;53.246;-6.670;2022-12-18T14:21:47;97366.91;;;9.66;100.00
55916;BME280;41826;53.246;-6.670;2022-12-18T14:24:19;97371.69;;;9.69;100.00
55916;BME280;41826;53.246;-6.670;2022-12-18T14:26:45;97373.31;;;9.70;100.00
55916;BME280;41826;53.246;-6.670;2022-12-18T14:29:28;97363.19;;;9.73;100.00
55916;BME280;41826;53.246;-6.670;2022-12-18T14:32:11;97347.03;;;9.76;100.00
55916;BME280;41826;53.246;-6.670;2022-12-18T14:34:37;97336.53;;;9.76;100.00
55916;BME280;41826;53.246;-6.670;2022-12-18T14:37:03;97339.69;;;9.67;100.00
55916;BME280;41826;53.246;-6.670;2022-12-18T14:39:29;97337.19;;;9.72;100.00
55916;BME280;41826;53.246;-6.670;2022-12-18T14:41:54;97339.75;;;9.79;100.00
55916;BME280;41826;53.246;-6.670;2022-12-18T14:44:20;97323.97;;;9.85;100.00
55916;BME280;41826;53.246;-6.670;2022-12-18T14:46:49;97324.75;;;9.86;100.00
55916;BME280;41826;53.246;-6.670;2022-12-18T14:49:26;97320.75;;;9.83;100.00
55916;BME280;41826;53.246;-6.670;2022-12-18T14:51:54;97312.91;;;9.95;100.00
55916;BME280;41826;53.246;-6.670;2022-12-18T14:54:24;97324.50;;;9.87;100.00
55916;BME280;41826;53.246;-6.670;2022-12-18T14:57:13;97328.75;;;9.88;100.00
55916;BME280;41826;53.246;-6.670;2022-12-18T14:59:41;97318.97;;;9.95;100.00